sensor_id;sensor_type;location;lat;lon;timestamp;temperature;humidity
63960;DHT22;50136;51.374;0.096;2023-04-25T00:07:14;6.60;99.90
63960;DHT22;50136;51.374;0.096;2023-04-25T00:17:18;6.40;99.90
63960;DHT22;50136;51.374;0.096;2023-04-25T00:27:20;6.40;99.90
63960;DHT22;50136;51.374;0.096;2023-04-25T00:37:23;6.30;99.90
63960;DHT22;50136;51.374;0.096;2023-04-25T00:47:25;6.20;99.90
63960;DHT22;50136;51.374;0.096;2023-04-25T00:57:29;5.80;99.90
63960;DHT22;50136;51.374;0.096;2023-04-25T01:07:31;5.60;99.90
63960;DHT22;50136;51.374;0.096;2023-04-25T01:17:35;5.30;99.90
63960;DHT22;50136;51.374;0.096;2023-04-25T01:27:39;5.10;99.90
63960;DHT22;50136;51.374;0.096;2023-04-25T01:37:42;4.90;99.90
63960;DHT22;50136;51.374;0.096;2023-04-25T01:47:46;4.80;99.90
63960;DHT22;50136;51.374;0.096;2023-04-25T01:57:48;4.80;99.90
63960;DHT22;50136;51.374;0.096;2023-04-25T02:07:52;4.50;99.90
63960;DHT22;50136;51.374;0.096;2023-04-25T02:17:54;4.50;99.90
63960;DHT22;50136;51.374;0.096;2023-04-25T02:27:57;4.40;99.90
63960;DHT22;50136;51.374;0.096;2023-04-25T02:37:59;4.40;99.90
63960;DHT22;50136;51.374;0.096;2023-04-25T02:48:03;4.30;99.90
63960;DHT22;50136;51.374;0.096;2023-04-25T02:58:05;4.20;99.90
63960;DHT22;50136;51.374;0.096;2023-04-25T03:08:08;4.10;99.90
63960;DHT22;50136;51.374;0.096;2023-04-25T03:18:10;4.10;99.90
63960;DHT22;50136;51.374;0.096;2023-04-25T03:28:14;4.00;99.90
63960;DHT22;50136;51.374;0.096;2023-04-25T03:38:16;4.00;99.90
63960;DHT22;50136;51.374;0.096;2023-04-25T03:48:19;4.00;99.90
63960;DHT22;50136;51.374;0.096;2023-04-25T03:58:22;3.90;99.90
63960;DHT22;50136;51.374;0.096;2023-04-25T04:08:25;3.70;99.90
63960;DHT22;50136;51.374;0.096;2023-04-25T04:18:27;3.60;99.90
63960;DHT22;50136;51.374;0.096;2023-04-25T04:28:30;3.40;99.90
63960;DHT22;50136;51.374;0.096;2023-04-25T04:38:32;3.40;99.90
63960;DHT22;50136;51.374;0.096;2023-04-25T04:48:36;3.30;99.90
63960;DHT22;50136;51.374;0.096;2023-04-25T04:58:37;3.30;99.90
63960;DHT22;50136;51.374;0.096;2023-04-25T05:08:41;3.20;99.90
63960;DHT22;50136;51.374;0.096;2023-04-25T05:18:43;3.30;99.90
63960;DHT22;50136;51.374;0.096;2023-04-25T05:28:46;3.30;99.90
63960;DHT22;50136;51.374;0.096;2023-04-25T05:38:48;3.30;99.90
63960;DHT22;50136;51.374;0.096;2023-04-25T05:48:51;3.50;99.90
63960;DHT22;50136;51.374;0.096;2023-04-25T05:58:53;3.60;99.90
63960;DHT22;50136;51.374;0.096;2023-04-25T06:08:58;3.70;99.90
63960;DHT22;50136;51.374;0.096;2023-04-25T06:19:00;3.80;99.90
63960;DHT22;50136;51.374;0.096;2023-04-25T06:29:03;3.90;99.90
63960;DHT22;50136;51.374;0.096;2023-04-25T06:39:05;4.10;99.90
63960;DHT22;50136;51.374;0.096;2023-04-25T06:49:08;4.40;99.90
63960;DHT22;50136;51.374;0.096;2023-04-25T06:59:11;4.60;99.90
63960;DHT22;50136;51.374;0.096;2023-04-25T07:09:14;4.90;99.90
63960;DHT22;50136;51.374;0.096;2023-04-25T07:19:16;5.10;99.90
63960;DHT22;50136;51.374;0.096;2023-04-25T07:29:19;5.30;99.90
63960;DHT22;50136;51.374;0.096;2023-04-25T07:39:21;5.60;99.90
63960;DHT22;50136;51.374;0.096;2023-04-25T07:49:25;5.70;99.90
63960;DHT22;50136;51.374;0.096;2023-04-25T07:59:27;6.00;99.90
63960;DHT22;50136;51.374;0.096;2023-04-25T08:09:32;6.30;99.90
63960;DHT22;50136;51.374;0.096;2023-04-25T08:19:34;6.50;99.90
63960;DHT22;50136;51.374;0.096;2023-04-25T08:29:37;6.80;99.90
63960;DHT22;50136;51.374;0.096;2023-04-25T08:39:39;9.10;99.90
63960;DHT22;50136;51.374;0.096;2023-04-25T08:49:45;11.40;99.90
63960;DHT22;50136;51.374;0.096;2023-04-25T08:59:47;13.70;99.90
63960;DHT22;50136;51.374;0.096;2023-04-25T09:09:51;15.20;97.60
63960;DHT22;50136;51.374;0.096;2023-04-25T09:19:54;16.70;94.80
63960;DHT22;50136;51.374;0.096;2023-04-25T09:29:58;16.90;91.40
63960;DHT22;50136;51.374;0.096;2023-04-25T09:40:05;18.10;91.90
63960;DHT22;50136;51.374;0.096;2023-04-25T09:50:16;18.60;89.50
63960;DHT22;50136;51.374;0.096;2023-04-25T10:00:19;14.30;90.90
63960;DHT22;50136;51.374;0.096;2023-04-25T10:10:24;15.90;86.40
63960;DHT22;50136;51.374;0.096;2023-04-25T10:20:26;14.00;91.10
63960;DHT22;50136;51.374;0.096;2023-04-25T10:30:29;14.10;91.60
63960;DHT22;50136;51.374;0.096;2023-04-25T10:40:31;16.60;85.40
63960;DHT22;50136;51.374;0.096;2023-04-25T10:50:38;13.70;91.10
63960;DHT22;50136;51.374;0.096;2023-04-25T11:00:40;14.70;90.00
63960;DHT22;50136;51.374;0.096;2023-04-25T11:10:47;14.10;85.20
63960;DHT22;50136;51.374;0.096;2023-04-25T11:20:51;12.90;90.90
63960;DHT22;50136;51.374;0.096;2023-04-25T11:30:55;12.70;90.60
63960;DHT22;50136;51.374;0.096;2023-04-25T11:40:57;12.30;89.50
63960;DHT22;50136;51.374;0.096;2023-04-25T11:51:01;12.00;91.10
63960;DHT22;50136;51.374;0.096;2023-04-25T12:01:03;11.20;93.00
63960;DHT22;50136;51.374;0.096;2023-04-25T12:11:20;12.20;91.90
63960;DHT22;50136;51.374;0.096;2023-04-25T12:21:22;12.80;88.10
63960;DHT22;50136;51.374;0.096;2023-04-25T12:31:25;12.60;91.40
63960;DHT22;50136;51.374;0.096;2023-04-25T12:41:27;13.30;91.00
63960;DHT22;50136;51.374;0.096;2023-04-25T12:51:31;13.10;89.60
63960;DHT22;50136;51.374;0.096;2023-04-25T13:01:33;12.40;90.40
63960;DHT22;50136;51.374;0.096;2023-04-25T13:11:38;12.20;90.90
63960;DHT22;50136;51.374;0.096;2023-04-25T13:21:41;12.30;90.40
63960;DHT22;50136;51.374;0.096;2023-04-25T13:31:45;13.20;90.00
63960;DHT22;50136;51.374;0.096;2023-04-25T13:41:47;14.00;86.10
63960;DHT22;50136;51.374;0.096;2023-04-25T13:51:50;12.80;87.90
63960;DHT22;50136;51.374;0.096;2023-04-25T14:01:52;12.90;87.40
63960;DHT22;50136;51.374;0.096;2023-04-25T14:11:56;12.50;86.50
63960;DHT22;50136;51.374;0.096;2023-04-25T14:21:58;12.90;88.40
63960;DHT22;50136;51.374;0.096;2023-04-25T14:32:01;12.70;88.10
63960;DHT22;50136;51.374;0.096;2023-04-25T14:42:03;12.30;87.50
63960;DHT22;50136;51.374;0.096;2023-04-25T14:52:07;12.60;90.10
63960;DHT22;50136;51.374;0.096;2023-04-25T15:02:09;12.50;88.30
63960;DHT22;50136;51.374;0.096;2023-04-25T15:12:12;12.90;86.50
63960;DHT22;50136;51.374;0.096;2023-04-25T15:22:14;13.00;89.20
63960;DHT22;50136;51.374;0.096;2023-04-25T15:32:18;12.40;86.60
63960;DHT22;50136;51.374;0.096;2023-04-25T15:42:20;12.20;88.40
63960;DHT22;50136;51.374;0.096;2023-04-25T15:52:23;13.00;88.90
63960;DHT22;50136;51.374;0.096;2023-04-25T16:02:26;12.60;88.30
63960;DHT22;50136;51.374;0.096;2023-04-25T16:12:30;13.20;87.30
63960;DHT22;50136;51.374;0.096;2023-04-25T16:22:32;13.40;84.80
63960;DHT22;50136;51.374;0.096;2023-04-25T16:32:36;12.70;86.00
63960;DHT22;50136;51.374;0.096;2023-04-25T16:42:38;12.20;86.70
63960;DHT22;50136;51.374;0.096;2023-04-25T16:52:41;12.30;88.00
63960;DHT22;50136;51.374;0.096;2023-04-25T17:02:45;12.50;86.90
63960;DHT22;50136;51.374;0.096;2023-04-25T17:12:48;12.70;85.90
63960;DHT22;50136;51.374;0.096;2023-04-25T17:22:52;12.20;90.10
63960;DHT22;50136;51.374;0.096;2023-04-25T17:32:55;11.90;87.40
63960;DHT22;50136;51.374;0.096;2023-04-25T17:42:57;11.60;89.90
63960;DHT22;50136;51.374;0.096;2023-04-25T17:53:01;11.20;89.50
63960;DHT22;50136;51.374;0.096;2023-04-25T18:13:40;10.90;88.90
63960;DHT22;50136;51.374;0.096;2023-04-25T18:23:42;10.90;93.60
63960;DHT22;50136;51.374;0.096;2023-04-25T18:33:46;10.40;94.20
63960;DHT22;50136;51.374;0.096;2023-04-25T18:43:48;10.30;94.60
63960;DHT22;50136;51.374;0.096;2023-04-25T18:53:52;10.00;95.40
63960;DHT22;50136;51.374;0.096;2023-04-25T19:03:54;9.70;96.00
63960;DHT22;50136;51.374;0.096;2023-04-25T19:13:58;9.50;96.60
63960;DHT22;50136;51.374;0.096;2023-04-25T19:24:01;9.20;97.20
63960;DHT22;50136;51.374;0.096;2023-04-25T19:34:05;9.10;98.00
63960;DHT22;50136;51.374;0.096;2023-04-25T19:44:08;8.80;98.40
63960;DHT22;50136;51.374;0.096;2023-04-25T19:54:11;8.60;99.20
63960;DHT22;50136;51.374;0.096;2023-04-25T20:04:13;8.30;99.90
63960;DHT22;50136;51.374;0.096;2023-04-25T20:14:17;8.10;99.90
63960;DHT22;50136;51.374;0.096;2023-04-25T20:24:19;8.00;99.90
63960;DHT22;50136;51.374;0.096;2023-04-25T20:34:22;7.90;99.90
63960;DHT22;50136;51.374;0.096;2023-04-25T20:44:24;7.90;99.90
63960;DHT22;50136;51.374;0.096;2023-04-25T20:54:27;7.70;99.90
63960;DHT22;50136;51.374;0.096;2023-04-25T21:04:29;7.60;99.90
63960;DHT22;50136;51.374;0.096;2023-04-25T21:14:33;7.50;99.90
63960;DHT22;50136;51.374;0.096;2023-04-25T21:24:35;7.50;99.90
63960;DHT22;50136;51.374;0.096;2023-04-25T21:34:38;7.40;99.90
63960;DHT22;50136;51.374;0.096;2023-04-25T21:44:40;7.30;99.90
63960;DHT22;50136;51.374;0.096;2023-04-25T21:54:43;7.20;99.90
63960;DHT22;50136;51.374;0.096;2023-04-25T22:04:45;7.10;99.90
63960;DHT22;50136;51.374;0.096;2023-04-25T22:14:49;6.90;99.90
63960;DHT22;50136;51.374;0.096;2023-04-25T22:24:51;6.80;99.90
63960;DHT22;50136;51.374;0.096;2023-04-25T22:34:55;6.70;99.90
63960;DHT22;50136;51.374;0.096;2023-04-25T22:44:58;6.70;99.90
63960;DHT22;50136;51.374;0.096;2023-04-25T22:55:02;6.70;99.90
63960;DHT22;50136;51.374;0.096;2023-04-25T23:05:04;6.60;99.90
63960;DHT22;50136;51.374;0.096;2023-04-25T23:15:08;6.60;99.90
63960;DHT22;50136;51.374;0.096;2023-04-25T23:25:11;6.60;99.90
63960;DHT22;50136;51.374;0.096;2023-04-25T23:35:14;6.60;99.90
63960;DHT22;50136;51.374;0.096;2023-04-25T23:45:16;6.40;99.90
63960;DHT22;50136;51.374;0.096;2023-04-25T23:55:19;6.20;99.90
